Time;durP1;ratioP1;P1;durP2;ratioP2;P2;SDS_P1;SDS_P2;PMS_P1;PMS_P2;Temp;Humidity;BMP_temperature;BMP_pressure;BME280_temperature;BME280_humidity;BME280_pressure;Samples;Min_cycle;Max_cycle;Signal;HPM_P1;HPM_P2
2022/05/19 00:01:43;;;;;;;3.97;2.80;;;19.00;99.90;;;;;;5049292;28;20457;-74
2022/05/19 00:04:08;;;;;;;3.30;3.00;;;19.00;99.90;;;;;;5049279;28;20981;-73
2022/05/19 00:06:34;;;;;;;2.93;2.63;;;18.90;99.90;;;;;;5049141;28;20185;-74
2022/05/19 00:08:59;;;;;;;3.47;3.03;;;18.90;99.90;;;;;;5048816;28;20237;-73
2022/05/19 00:11:29;;;;;;;6.27;2.80;;;18.80;99.90;;;;;;5030353;28;20627;-74
2022/05/19 00:13:55;;;;;;;3.10;2.80;;;18.80;99.90;;;;;;5049014;28;20194;-74
2022/05/19 00:16:20;;;;;;;2.67;2.47;;;18.80;99.90;;;;;;5048936;28;20710;-74
2022/05/19 00:18:46;;;;;;;2.67;2.47;;;18.80;99.90;;;;;;5049226;28;20597;-75
2022/05/19 00:21:12;;;;;;;4.20;3.10;;;18.80;99.90;;;;;;5048828;28;20251;-74
2022/05/19 00:23:37;;;;;;;3.20;2.90;;;18.80;99.90;;;;;;5048653;28;20714;-74
2022/05/19 00:26:03;;;;;;;3.37;2.80;;;18.60;99.90;;;;;;5048816;28;20672;-74
2022/05/19 00:28:29;;;;;;;3.70;3.00;;;18.70;99.90;;;;;;5048788;28;20181;-74
2022/05/19 00:30:55;;;;;;;6.93;3.00;;;18.70;99.90;;;;;;5029352;28;20488;-75
2022/05/19 00:33:20;;;;;;;3.17;2.57;;;18.60;99.90;;;;;;5048685;28;20255;-74
2022/05/19 00:35:46;;;;;;;4.90;2.77;;;18.60;99.90;;;;;;5048640;28;20224;-73
2022/05/19 00:38:12;;;;;;;3.30;3.00;;;18.60;99.90;;;;;;5048644;28;20191;-74
2022/05/19 00:40:38;;;;;;;2.73;2.53;;;18.50;99.90;;;;;;5048639;28;20225;-74
2022/05/19 00:43:05;;;;;;;3.63;2.70;;;18.50;99.90;;;;;;5048512;28;20210;-73
2022/05/19 00:45:52;;;;;;;3.33;2.97;;;18.30;99.90;;;;;;5048230;28;20453;-74
2022/05/19 00:48:24;;;;;;;3.40;2.83;;;18.20;99.90;;;;;;5030245;28;20933;-74
2022/05/19 00:51:06;;;;;;;2.90;2.70;;;18.20;99.90;;;;;;5048826;28;20409;-74
2022/05/19 00:54:04;;;;;;;5.37;3.30;;;18.10;99.90;;;;;;5048763;28;20514;-74
2022/05/19 00:57:10;;;;;;;3.00;2.70;;;18.10;99.90;;;;;;4993693;28;20845;-74
2022/05/19 00:59:40;;;;;;;3.03;2.40;;;18.10;99.90;;;;;;5048792;28;20745;-74
2022/05/19 01:02:09;;;;;;;3.63;2.53;;;18.00;99.90;;;;;;5047835;28;20410;-74
2022/05/19 01:04:47;;;;;;;4.53;2.70;;;17.90;99.90;;;;;;5048286;28;20571;-74
2022/05/19 01:07:19;;;;;;;2.87;2.67;;;18.00;99.90;;;;;;5048064;28;20459;-74
2022/05/19 01:09:47;;;;;;;3.03;2.83;;;18.00;99.90;;;;;;5047713;28;20405;-74
2022/05/19 01:12:12;;;;;;;3.10;2.63;;;18.20;99.90;;;;;;5047891;28;20435;-74
2022/05/19 01:14:39;;;;;;;2.83;2.60;;;18.20;99.90;;;;;;5047544;28;20429;-73
2022/05/19 01:17:06;;;;;;;4.37;3.20;;;18.20;99.90;;;;;;5046255;28;20206;-73
2022/05/19 01:19:38;;;;;;;2.70;2.50;;;18.20;99.90;;;;;;5047945;28;20871;-75
2022/05/19 01:22:25;;;;;;;3.27;2.97;;;18.20;99.90;;;;;;5048064;28;20409;-75
2022/05/19 01:25:03;;;;;;;7.23;2.87;;;18.10;99.90;;;;;;5030001;28;21040;-74
2022/05/19 01:27:29;;;;;;;5.20;3.10;;;18.00;99.90;;;;;;5046792;28;20435;-74
2022/05/19 01:29:55;;;;;;;3.50;3.10;;;18.10;99.90;;;;;;5044848;28;20555;-74
2022/05/19 01:32:30;;;;;;;3.00;2.80;;;17.90;99.90;;;;;;5048264;28;20932;-75
2022/05/19 01:34:57;;;;;;;3.53;2.70;;;18.00;99.90;;;;;;5028289;28;20210;-75
2022/05/19 01:37:23;;;;;;;3.50;3.20;;;18.00;99.90;;;;;;5048460;28;20767;-75
2022/05/19 01:39:54;;;;;;;3.63;3.17;;;18.10;99.90;;;;;;5047504;28;20425;-72
2022/05/19 01:42:26;;;;;;;3.50;2.73;;;18.10;99.90;;;;;;5046423;28;20175;-73
2022/05/19 01:44:59;;;;;;;2.57;2.37;;;18.10;99.90;;;;;;5045996;28;20469;-74
2022/05/19 01:47:47;;;;;;;3.37;2.80;;;17.90;99.90;;;;;;5047046;28;20401;-75
2022/05/19 01:50:24;;;;;;;2.93;2.73;;;17.90;99.90;;;;;;5046822;28;20462;-74
2022/05/19 01:53:00;;;;;;;2.57;2.30;;;17.90;99.90;;;;;;5046333;28;20409;-74
2022/05/19 01:55:43;;;;;;;3.03;2.83;;;17.70;99.90;;;;;;5045451;28;20515;-72
2022/05/19 01:58:33;;;;;;;3.70;3.10;;;17.60;99.90;;;;;;5046433;28;20420;-74
2022/05/19 02:01:01;;;;;;;2.97;2.60;;;17.60;99.90;;;;;;4995870;28;20423;-73
2022/05/19 02:03:32;;;;;;;3.17;2.97;;;17.60;99.90;;;;;;5046458;28;20539;-75
2022/05/19 02:06:16;;;;;;;2.83;2.60;;;17.70;99.90;;;;;;5028314;28;20853;-74
2022/05/19 02:08:59;;;;;;;3.23;2.83;;;17.80;99.90;;;;;;5046520;28;20409;-72
2022/05/19 02:11:31;;;;;;;3.20;2.67;;;17.80;99.90;;;;;;5045928;28;20409;-74
2022/05/19 02:14:00;;;;;;;3.10;2.80;;;17.90;99.90;;;;;;5046954;28;20455;-74
2022/05/19 02:16:30;;;;;;;2.97;2.77;;;17.90;99.90;;;;;;5027109;28;20428;-74
2022/05/19 02:18:56;;;;;;;5.20;3.50;;;17.90;99.90;;;;;;5046707;28;20420;-74
2022/05/19 02:21:22;;;;;;;4.70;3.20;;;18.00;99.90;;;;;;5045537;28;20547;-73
2022/05/19 02:23:49;;;;;;;2.87;2.67;;;17.90;99.90;;;;;;5048028;28;20555;-74
2022/05/19 02:26:14;;;;;;;3.73;3.30;;;17.90;99.90;;;;;;5046321;28;20712;-74
2022/05/19 02:28:51;;;;;;;3.63;2.97;;;17.90;99.90;;;;;;5046835;28;20571;-74
2022/05/19 02:31:17;;;;;;;3.10;2.73;;;17.70;99.90;;;;;;5045673;28;20201;-74
2022/05/19 02:33:42;;;;;;;5.20;3.37;;;17.60;99.90;;;;;;5027051;28;21019;-74
2022/05/19 02:36:10;;;;;;;3.30;3.00;;;17.50;99.90;;;;;;5046151;28;20209;-73
2022/05/19 02:38:36;;;;;;;3.33;3.13;;;17.40;99.90;;;;;;5045129;28;20200;-74
2022/05/19 02:41:02;;;;;;;3.50;2.93;;;17.30;99.90;;;;;;5045315;28;20421;-74
2022/05/19 02:43:28;;;;;;;3.40;3.10;;;17.20;99.90;;;;;;5046215;28;20440;-74
2022/05/19 02:45:54;;;;;;;3.03;2.80;;;17.20;99.90;;;;;;5045191;28;20452;-73
2022/05/19 02:48:20;;;;;;;4.10;2.83;;;17.40;99.90;;;;;;5045321;28;20228;-73
2022/05/19 02:50:48;;;;;;;3.00;2.80;;;17.50;99.90;;;;;;5045019;28;20284;-74
2022/05/19 02:53:15;;;;;;;3.87;3.43;;;17.50;99.90;;;;;;5045594;28;20429;-73
2022/05/19 02:55:41;;;;;;;4.00;2.83;;;17.30;99.90;;;;;;5046643;28;20937;-74
2022/05/19 02:58:08;;;;;;;2.93;2.60;;;17.20;99.90;;;;;;5046195;28;20412;-74
2022/05/19 03:00:34;;;;;;;5.27;3.20;;;17.20;99.90;;;;;;5045897;28;20418;-73
2022/05/19 03:03:00;;;;;;;3.00;2.73;;;17.20;99.90;;;;;;5045815;28;21290;-74
2022/05/19 03:05:29;;;;;;;4.83;2.90;;;17.10;99.90;;;;;;5044699;28;20541;-73
2022/05/19 03:07:54;;;;;;;3.23;2.93;;;17.10;99.90;;;;;;5045712;28;20265;-74
2022/05/19 03:10:20;;;;;;;3.37;3.07;;;17.10;99.90;;;;;;5045440;28;20542;-73
2022/05/19 03:12:46;;;;;;;3.50;2.77;;;17.00;99.90;;;;;;5027268;28;20568;-74
2022/05/19 03:15:12;;;;;;;2.97;2.67;;;16.90;99.90;;;;;;5045573;28;20182;-74
2022/05/19 03:17:38;;;;;;;3.10;2.80;;;17.00;99.90;;;;;;5026690;28;20187;-72
2022/05/19 03:20:06;;;;;;;3.43;3.13;;;17.00;99.90;;;;;;5046108;28;20431;-74
2022/05/19 03:22:33;;;;;;;3.80;3.40;;;16.90;99.90;;;;;;5048569;28;20423;-73
2022/05/19 03:24:58;;;;;;;3.40;2.93;;;16.90;99.90;;;;;;5049002;28;20596;-73
2022/05/19 03:27:24;;;;;;;4.00;3.30;;;16.80;99.90;;;;;;5049710;28;20860;-74
2022/05/19 03:29:50;;;;;;;3.47;3.17;;;16.90;99.90;;;;;;5048871;28;20205;-73
2022/05/19 03:32:16;;;;;;;3.13;2.83;;;16.90;99.90;;;;;;5049155;28;20546;-74
2022/05/19 03:34:42;;;;;;;2.73;2.53;;;17.00;99.90;;;;;;5047909;28;20953;-75
2022/05/19 03:37:08;;;;;;;3.40;3.10;;;16.90;99.90;;;;;;5032143;28;20427;-75
2022/05/19 03:39:36;;;;;;;3.00;2.70;;;17.00;99.90;;;;;;5049513;28;20203;-74
2022/05/19 03:42:02;;;;;;;3.60;3.10;;;16.90;99.90;;;;;;5048358;28;20422;-74
2022/05/19 03:44:28;;;;;;;7.20;3.40;;;16.90;99.90;;;;;;5030217;28;20536;-74
2022/05/19 03:46:54;;;;;;;4.23;2.70;;;16.80;99.90;;;;;;5048627;28;20405;-74
2022/05/19 03:49:19;;;;;;;4.90;3.50;;;16.70;99.90;;;;;;5049145;28;20185;-73
2022/05/19 03:51:45;;;;;;;5.20;3.20;;;16.70;99.90;;;;;;5048335;28;20631;-73
2022/05/19 03:54:11;;;;;;;3.07;2.70;;;16.80;99.90;;;;;;5049188;28;20364;-73
2022/05/19 03:56:36;;;;;;;3.30;2.77;;;16.90;99.90;;;;;;5048927;28;20239;-73
2022/05/19 03:59:02;;;;;;;4.40;3.30;;;16.90;99.90;;;;;;5030795;28;20194;-72
2022/05/19 04:01:28;;;;;;;3.63;3.33;;;16.90;99.90;;;;;;5048725;28;20188;-73
2022/05/19 04:03:54;;;;;;;3.40;3.00;;;16.70;99.90;;;;;;5048483;28;20200;-73
2022/05/19 04:06:20;;;;;;;3.97;3.10;;;16.60;99.90;;;;;;5048666;28;20181;-75
2022/05/19 04:08:46;;;;;;;3.43;3.13;;;16.50;99.90;;;;;;5048963;28;20912;-74
2022/05/19 04:11:12;;;;;;;3.13;2.93;;;16.60;99.90;;;;;;5049409;28;20178;-75
2022/05/19 04:13:37;;;;;;;3.40;3.10;;;16.60;99.90;;;;;;5048559;28;20566;-75
2022/05/19 04:16:03;;;;;;;7.03;5.43;;;16.60;99.90;;;;;;5048892;28;20636;-73
2022/05/19 04:18:29;;;;;;;5.77;5.17;;;16.60;99.90;;;;;;5049269;28;20221;-73
2022/05/19 04:20:55;;;;;;;6.60;5.83;;;16.70;99.90;;;;;;5049545;28;20189;-73
2022/05/19 04:23:21;;;;;;;5.77;5.13;;;16.80;99.90;;;;;;5048872;28;20250;-73
2022/05/19 04:25:46;;;;;;;7.90;6.03;;;16.80;99.90;;;;;;5049719;28;20884;-73
2022/05/19 04:28:13;;;;;;;7.27;5.17;;;16.90;99.90;;;;;;5050787;28;20272;-75
2022/05/19 04:30:38;;;;;;;7.63;5.57;;;17.00;99.90;;;;;;5049016;28;20658;-73
2022/05/19 04:33:04;;;;;;;5.37;4.97;;;17.00;99.90;;;;;;5028936;28;20441;-74
2022/05/19 04:35:31;;;;;;;6.03;5.47;;;17.00;99.90;;;;;;5048290;28;20214;-74
2022/05/19 04:38:00;;;;;;;6.00;5.50;;;17.10;99.90;;;;;;5048748;28;20435;-73
2022/05/19 04:40:26;;;;;;;5.07;4.50;;;17.10;99.90;;;;;;5047946;28;20884;-72
2022/05/19 04:42:53;;;;;;;5.43;4.17;;;17.10;99.90;;;;;;5046763;28;20443;-74
2022/05/19 04:45:19;;;;;;;5.67;4.40;;;17.20;99.90;;;;;;5046399;28;20459;-75
2022/05/19 04:47:45;;;;;;;5.20;3.87;;;17.30;99.90;;;;;;5047359;28;20409;-72
2022/05/19 04:50:11;;;;;;;4.03;3.37;;;17.30;99.90;;;;;;5046629;28;20178;-72
2022/05/19 04:52:37;;;;;;;5.17;3.37;;;17.40;99.90;;;;;;5046182;28;20417;-72
2022/05/19 04:55:08;;;;;;;3.57;3.27;;;17.60;99.90;;;;;;5046540;28;20821;-75
2022/05/19 04:57:33;;;;;;;4.20;3.80;;;17.70;99.90;;;;;;5047074;28;20181;-74
2022/05/19 04:59:59;;;;;;;4.60;4.10;;;17.70;99.90;;;;;;5046270;28;20836;-74
2022/05/19 05:02:25;;;;;;;3.50;3.30;;;17.90;99.90;;;;;;5046037;28;20253;-74
2022/05/19 05:04:50;;;;;;;3.40;3.10;;;18.00;99.90;;;;;;5045013;28;20271;-74
2022/05/19 05:07:16;;;;;;;4.23;3.87;;;18.20;99.90;;;;;;5045828;28;20224;-75
2022/05/19 05:09:41;;;;;;;3.80;3.40;;;18.30;99.90;;;;;;5046301;28;20220;-74
2022/05/19 05:12:08;;;;;;;4.30;3.70;;;18.30;99.90;;;;;;5046185;28;20232;-75
2022/05/19 05:14:33;;;;;;;3.47;3.17;;;18.20;99.90;;;;;;5046813;28;20206;-74
2022/05/19 05:16:59;;;;;;;2.93;2.70;;;18.30;99.90;;;;;;5047011;28;20778;-75
2022/05/19 05:19:25;;;;;;;3.60;3.23;;;18.40;99.90;;;;;;5026998;28;20186;-73
2022/05/19 05:21:55;;;;;;;4.40;3.57;;;18.40;99.90;;;;;;5026906;28;20225;-72
2022/05/19 05:24:21;;;;;;;4.33;3.37;;;18.50;99.90;;;;;;5045328;28;20767;-73
2022/05/19 05:26:46;;;;;;;3.50;3.20;;;18.50;99.90;;;;;;5045582;28;21248;-74
2022/05/19 05:29:12;;;;;;;3.07;2.77;;;18.70;99.90;;;;;;5045276;28;20420;-72
2022/05/19 05:31:38;;;;;;;3.87;3.50;;;18.80;99.90;;;;;;5045049;28;20525;-74
2022/05/19 05:34:04;;;;;;;3.37;3.07;;;18.90;99.90;;;;;;5045139;28;20490;-74
2022/05/19 05:36:29;;;;;;;3.40;2.70;;;19.10;99.90;;;;;;5044893;28;20193;-74
2022/05/19 05:38:56;;;;;;;3.10;2.77;;;19.20;99.90;;;;;;5045018;28;20170;-73
2022/05/19 05:41:22;;;;;;;5.50;2.90;;;19.30;99.90;;;;;;5026517;28;20344;-75
2022/05/19 05:43:47;;;;;;;3.67;3.37;;;19.40;99.90;;;;;;5044921;28;20852;-75
2022/05/19 05:46:15;;;;;;;3.23;3.00;;;19.50;99.90;;;;;;5045035;28;20212;-72
2022/05/19 05:48:42;;;;;;;3.90;3.00;;;19.50;99.90;;;;;;5045338;28;20690;-74
2022/05/19 05:51:10;;;;;;;4.80;3.30;;;19.50;99.90;;;;;;5044380;28;20451;-73
2022/05/19 05:53:37;;;;;;;4.47;3.20;;;19.50;99.90;;;;;;5045006;28;20968;-73
2022/05/19 05:56:08;;;;;;;3.20;2.50;;;19.50;99.90;;;;;;5045579;28;20912;-73
2022/05/19 05:58:34;;;;;;;3.30;3.00;;;19.60;99.90;;;;;;5044844;28;20895;-73
2022/05/19 06:01:04;;;;;;;3.20;3.00;;;19.70;99.90;;;;;;5044636;28;20494;-74
2022/05/19 06:03:31;;;;;;;4.57;3.03;;;19.90;99.90;;;;;;5044208;28;20436;-73
2022/05/19 06:05:57;;;;;;;4.97;3.13;;;20.10;99.90;;;;;;5043172;28;20463;-73
2022/05/19 06:08:22;;;;;;;3.43;3.10;;;20.20;99.90;;;;;;5026382;28;21583;-74
2022/05/19 06:10:48;;;;;;;4.27;3.53;;;20.50;99.90;;;;;;5044298;28;20400;-73
2022/05/19 06:13:15;;;;;;;3.07;2.83;;;20.60;99.90;;;;;;5044881;28;20202;-74
2022/05/19 06:15:42;;;;;;;4.00;3.57;;;20.90;99.90;;;;;;5044404;28;20655;-73
2022/05/19 06:18:07;;;;;;;3.53;2.47;;;21.00;99.90;;;;;;5044370;28;20508;-72
2022/05/19 06:20:34;;;;;;;5.00;3.03;;;21.20;99.90;;;;;;5043678;28;20864;-73
2022/05/19 06:23:00;;;;;;;5.00;3.30;;;21.40;99.90;;;;;;5044746;28;20210;-74
2022/05/19 06:25:26;;;;;;;3.20;2.90;;;21.50;99.90;;;;;;5044797;28;20983;-75
2022/05/19 06:27:52;;;;;;;4.40;3.37;;;21.60;99.90;;;;;;5044785;28;20179;-75
2022/05/19 06:30:19;;;;;;;2.63;2.43;;;21.70;99.90;;;;;;5045182;28;20771;-71
2022/05/19 06:32:47;;;;;;;4.20;3.03;;;21.80;99.90;;;;;;5044507;28;20474;-74
2022/05/19 06:35:15;;;;;;;5.03;3.30;;;21.80;99.90;;;;;;5044770;28;20420;-74
2022/05/19 06:37:40;;;;;;;4.33;3.20;;;21.70;99.90;;;;;;5044332;28;20401;-74
2022/05/19 06:40:07;;;;;;;4.30;3.00;;;21.70;99.90;;;;;;5045139;28;20504;-74
2022/05/19 06:42:35;;;;;;;3.83;3.17;;;21.80;99.90;;;;;;5044150;28;20297;-72
2022/05/19 06:45:01;;;;;;;3.50;3.20;;;22.10;99.90;;;;;;5044227;28;20457;-73
2022/05/19 06:47:26;;;;;;;4.20;3.30;;;22.10;99.90;;;;;;5025980;28;20435;-75
2022/05/19 06:49:54;;;;;;;4.50;3.30;;;22.20;99.90;;;;;;5044192;28;20177;-73
2022/05/19 06:52:28;;;;;;;6.20;3.07;;;22.30;99.90;;;;;;5043605;28;20547;-73
2022/05/19 06:54:55;;;;;;;7.00;3.60;;;22.30;99.90;;;;;;5042732;28;20555;-74
2022/05/19 06:57:22;;;;;;;6.63;3.50;;;22.30;99.90;;;;;;5048391;28;20431;-73
2022/05/19 06:59:49;;;;;;;4.60;3.00;;;22.40;99.90;;;;;;5048573;28;20409;-74
2022/05/19 07:02:16;;;;;;;5.10;3.67;;;22.30;99.90;;;;;;5048082;28;20909;-73
2022/05/19 07:04:41;;;;;;;6.47;3.33;;;22.30;99.90;;;;;;5048224;28;20514;-74
2022/05/19 07:07:07;;;;;;;4.90;3.60;;;22.60;99.90;;;;;;5029816;28;20405;-75
2022/05/19 07:09:34;;;;;;;3.47;3.10;;;22.50;99.90;;;;;;5047968;28;20170;-74
2022/05/19 07:12:01;;;;;;;4.00;3.20;;;22.70;99.90;;;;;;5029826;28;20233;-74
2022/05/19 07:14:27;;;;;;;3.50;3.07;;;22.80;99.90;;;;;;5048535;28;20901;-75
2022/05/19 07:16:53;;;;;;;6.37;3.70;;;22.70;99.90;;;;;;5047576;28;20409;-73
2022/05/19 07:22:13;;;;;;;3.50;3.10;;;22.70;99.90;;;;;;5047633;28;20439;-74
2022/05/19 07:24:39;;;;;;;3.60;3.03;;;22.80;99.90;;;;;;5048634;28;20929;-75
2022/05/19 07:27:05;;;;;;;3.97;3.20;;;22.70;99.90;;;;;;5030099;28;20520;-74
2022/05/19 07:29:31;;;;;;;3.20;2.90;;;22.70;99.90;;;;;;5048191;28;20225;-74
2022/05/19 07:32:00;;;;;;;3.17;2.57;;;22.70;99.90;;;;;;5047516;28;20416;-72
2022/05/19 07:34:28;;;;;;;5.80;3.40;;;22.90;99.90;;;;;;5048523;28;20198;-73
2022/05/19 07:36:55;;;;;;;8.80;2.90;;;23.10;99.80;;;;;;5052358;28;20468;-75
2022/05/19 07:39:22;;;;;;;3.50;3.20;;;23.00;99.90;;;;;;5034331;28;20466;-73
2022/05/19 07:41:48;;;;;;;6.17;3.40;;;23.20;99.90;;;;;;5031309;28;21257;-74
2022/05/19 07:44:14;;;;;;;5.30;3.60;;;23.40;99.90;;;;;;5050365;28;20498;-72
2022/05/19 07:46:40;;;;;;;4.47;3.13;;;23.50;99.70;;;;;;5047996;28;20496;-73
2022/05/19 07:49:07;;;;;;;3.70;3.20;;;23.70;99.90;;;;;;5048977;28;20509;-74
2022/05/19 07:51:39;;;;;;;3.60;2.67;;;23.90;99.70;;;;;;5049683;28;20401;-72
2022/05/19 07:54:10;;;;;;;5.10;3.03;;;24.10;99.30;;;;;;5049957;28;20425;-74
2022/05/19 07:56:37;;;;;;;4.07;3.30;;;24.30;99.20;;;;;;5050545;28;20436;-76
2022/05/19 07:59:04;;;;;;;5.37;3.20;;;24.30;98.40;;;;;;5049310;28;20429;-74
2022/05/19 08:01:29;;;;;;;3.10;2.83;;;24.40;98.80;;;;;;5049981;28;20417;-75
2022/05/19 08:03:57;;;;;;;4.17;3.10;;;24.60;98.60;;;;;;5049312;28;20431;-74
2022/05/19 08:06:22;;;;;;;4.80;3.30;;;24.80;98.60;;;;;;5048108;28;20182;-73
2022/05/19 08:08:48;;;;;;;4.53;3.20;;;24.80;97.70;;;;;;5048646;28;20444;-74
2022/05/19 08:11:14;;;;;;;3.90;3.50;;;25.10;97.70;;;;;;5047914;28;21082;-73
2022/05/19 08:16:24;;;;;;;3.50;3.20;;;25.10;98.50;;;;;;5048293;28;20412;-73
2022/05/19 08:18:50;;;;;;;3.90;3.23;;;25.20;97.70;;;;;;5029575;28;20433;-75
2022/05/19 08:21:16;;;;;;;4.90;3.00;;;25.20;97.30;;;;;;5028992;28;20193;-74
2022/05/19 08:23:50;;;;;;;4.17;2.87;;;25.20;97.60;;;;;;5047112;28;20461;-75
2022/05/19 08:26:17;;;;;;;3.97;3.57;;;25.20;97.50;;;;;;5046681;28;20193;-74
2022/05/19 08:28:44;;;;;;;3.83;3.43;;;25.20;97.60;;;;;;5046554;28;20409;-75
2022/05/19 08:31:13;;;;;;;3.23;3.03;;;25.40;97.70;;;;;;5046416;28;20413;-74
2022/05/19 08:33:40;;;;;;;3.10;2.80;;;25.60;97.30;;;;;;5046042;28;20432;-75
2022/05/19 08:36:07;;;;;;;4.87;2.90;;;25.90;96.90;;;;;;5045826;28;20440;-73
2022/05/19 08:38:34;;;;;;;3.30;3.10;;;25.90;96.90;;;;;;5027862;28;20425;-75
2022/05/19 08:41:08;;;;;;;3.23;2.93;;;25.90;97.00;;;;;;5046203;28;20467;-75
2022/05/19 08:43:48;;;;;;;3.27;2.93;;;26.00;97.10;;;;;;5045468;28;20464;-75
2022/05/19 08:46:30;;;;;;;4.00;3.60;;;25.90;96.70;;;;;;5045815;28;21046;-73
2022/05/19 08:49:02;;;;;;;3.17;2.97;;;26.20;96.80;;;;;;5046120;28;20921;-75
2022/05/19 08:51:38;;;;;;;4.10;3.50;;;26.20;96.40;;;;;;5027746;28;20467;-74
2022/05/19 08:54:06;;;;;;;4.37;3.67;;;26.40;96.00;;;;;;5045664;28;20436;-74
2022/05/19 08:56:39;;;;;;;3.50;3.20;;;26.50;96.50;;;;;;5028036;28;20417;-74
2022/05/19 08:59:17;;;;;;;6.03;3.47;;;26.60;96.10;;;;;;5045115;28;20394;-74
2022/05/19 09:02:05;;;;;;;5.77;3.47;;;26.80;96.10;;;;;;5045738;28;20408;-76
2022/05/19 09:04:49;;;;;;;3.30;3.00;;;27.00;95.90;;;;;;5045507;28;20469;-75
2022/05/19 09:10:30;;;;;;;4.27;3.87;;;27.30;94.80;;;;;;5045342;28;20508;-73
2022/05/19 09:13:34;;;;;;;3.30;3.00;;;27.40;95.60;;;;;;5027563;28;20945;-74
2022/05/19 09:16:18;;;;;;;4.70;3.37;;;27.70;94.90;;;;;;5047419;28;20917;-75
2022/05/19 09:18:52;;;;;;;4.60;3.57;;;27.70;94.60;;;;;;5045660;28;20409;-74
2022/05/19 09:21:18;;;;;;;4.10;3.70;;;27.80;94.30;;;;;;5045776;28;20413;-73
2022/05/19 09:23:44;;;;;;;3.70;2.80;;;27.70;93.60;;;;;;5046034;28;20456;-73
2022/05/19 09:26:32;;;;;;;4.63;3.50;;;27.80;93.30;;;;;;5045702;28;20671;-74
2022/05/19 09:29:11;;;;;;;3.50;3.20;;;28.00;93.50;;;;;;5045534;28;21209;-74
2022/05/19 09:31:50;;;;;;;3.80;3.30;;;28.10;92.90;;;;;;5045300;28;20401;-75
2022/05/19 09:34:16;;;;;;;3.73;3.43;;;28.40;93.40;;;;;;5045743;28;20792;-75
2022/05/19 09:37:24;;;;;;;5.43;2.77;;;28.20;92.50;;;;;;5045138;28;20459;-71
2022/05/19 09:39:58;;;;;;;3.30;3.10;;;28.40;92.40;;;;;;5006494;28;20463;-74
2022/05/19 09:42:34;;;;;;;3.80;3.33;;;28.70;91.90;;;;;;5045491;28;20406;-73
2022/05/19 09:45:00;;;;;;;5.10;3.37;;;28.70;91.60;;;;;;5046109;28;20922;-75
2022/05/19 09:47:33;;;;;;;9.13;3.10;;;28.90;91.50;;;;;;5046398;28;20417;-75
2022/05/19 09:50:23;;;;;;;3.60;3.30;;;29.10;91.10;;;;;;5028125;28;20178;-73
2022/05/19 09:52:49;;;;;;;4.20;3.80;;;29.00;90.80;;;;;;5045591;28;20405;-75
2022/05/19 09:55:20;;;;;;;4.40;3.07;;;29.00;91.50;;;;;;5045870;28;20897;-75
2022/05/19 09:57:52;;;;;;;4.03;3.23;;;29.30;91.50;;;;;;5046312;28;20254;-76
2022/05/19 10:00:35;;;;;;;5.60;3.57;;;29.40;90.80;;;;;;5045814;28;20409;-71
2022/05/19 10:03:03;;;;;;;4.10;3.40;;;29.60;91.20;;;;;;5045793;28;20429;-75
2022/05/19 10:05:35;;;;;;;5.93;3.87;;;29.50;91.10;;;;;;5045871;28;20463;-72
2022/05/19 10:08:05;;;;;;;4.17;3.87;;;29.00;92.30;;;;;;5044952;28;20440;-73
2022/05/19 10:10:35;;;;;;;6.30;3.23;;;29.00;92.60;;;;;;5045181;28;20405;-74
2022/05/19 10:13:07;;;;;;;4.60;3.20;;;29.40;92.30;;;;;;5044550;28;20536;-73
2022/05/19 10:15:51;;;;;;;3.10;2.90;;;29.70;91.40;;;;;;5027473;28;20431;-75
2022/05/19 10:18:20;;;;;;;6.33;3.73;;;29.60;92.00;;;;;;5045595;28;20420;-74
2022/05/19 10:20:57;;;;;;;4.43;3.90;;;29.40;92.60;;;;;;5045618;28;20416;-72
2022/05/19 10:23:23;;;;;;;5.20;3.70;;;29.50;92.10;;;;;;5043676;28;20998;-73
2022/05/19 10:26:10;;;;;;;4.30;3.57;;;29.50;92.00;;;;;;5045011;28;20445;-74
2022/05/19 10:32:07;;;;;;;3.60;3.30;;;29.70;92.60;;;;;;5044798;28;20484;-74
2022/05/19 10:35:02;;;;;;;6.80;3.60;;;30.10;91.00;;;;;;5045025;28;21201;-73
2022/05/19 10:37:46;;;;;;;5.07;3.37;;;30.20;91.30;;;;;;5045354;28;20440;-75
2022/05/19 10:40:14;;;;;;;3.90;3.60;;;30.10;91.60;;;;;;5045308;28;20444;-74
2022/05/19 10:42:45;;;;;;;4.17;3.77;;;30.30;91.30;;;;;;5044460;28;20421;-73
2022/05/19 10:45:17;;;;;;;5.57;3.77;;;30.60;90.80;;;;;;5044601;28;20965;-74
2022/05/19 10:48:12;;;;;;;5.37;4.07;;;30.70;90.20;;;;;;5044965;28;20411;-75
2022/05/19 10:50:59;;;;;;;4.87;3.70;;;30.50;90.40;;;;;;5045832;28;20397;-75
2022/05/19 10:53:27;;;;;;;4.80;4.30;;;30.10;90.90;;;;;;5027255;28;20449;-76
2022/05/19 10:56:25;;;;;;;4.90;3.50;;;29.90;90.40;;;;;;5046266;28;20408;-73
2022/05/19 10:59:17;;;;;;;5.43;4.20;;;30.40;90.80;;;;;;5045130;28;20428;-75
2022/05/19 11:02:11;;;;;;;4.43;3.80;;;30.30;90.30;;;;;;5042754;28;20429;-72
2022/05/19 11:05:09;;;;;;;5.63;3.63;;;30.50;90.00;;;;;;5026609;28;20467;-76
2022/05/19 11:07:47;;;;;;;4.50;4.03;;;30.60;90.10;;;;;;5045014;28;20459;-74
2022/05/19 11:10:24;;;;;;;4.20;3.80;;;30.50;88.70;;;;;;5045683;28;20718;-75
2022/05/19 11:13:11;;;;;;;4.23;3.83;;;30.70;90.00;;;;;;5044349;28;20413;-72
2022/05/19 11:16:11;;;;;;;4.73;4.00;;;31.00;88.00;;;;;;5045302;28;20401;-72
2022/05/19 11:19:00;;;;;;;6.47;3.63;;;31.00;85.30;;;;;;5044811;28;20405;-72
2022/05/19 11:21:38;;;;;;;4.43;4.07;;;31.20;88.70;;;;;;5044370;28;20897;-73
2022/05/19 11:27:54;;;;;;;4.37;3.90;;;34.50;77.00;;;;;;5014567;28;20567;-71
2022/05/19 11:30:25;;;;;;;3.93;3.63;;;34.70;74.90;;;;;;5044401;28;21288;-71
2022/05/19 11:32:58;;;;;;;5.03;3.63;;;35.80;70.80;;;;;;5044471;28;20393;-70
2022/05/19 11:35:45;;;;;;;5.13;3.80;;;35.70;68.50;;;;;;5044256;28;20764;-72
2022/05/19 11:38:16;;;;;;;5.03;3.50;;;36.30;68.80;;;;;;5044310;28;20842;-72
2022/05/19 11:41:11;;;;;;;4.10;3.63;;;37.20;64.90;;;;;;5044303;28;21659;-72
2022/05/19 11:43:47;;;;;;;5.77;3.70;;;37.80;60.50;;;;;;5047275;28;20440;-71
2022/05/19 11:46:21;;;;;;;6.87;3.60;;;37.50;63.10;;;;;;5047872;28;20539;-73
2022/05/19 11:55:12;;;;;;;5.50;3.50;;;38.10;58.80;;;;;;5048659;28;20451;-72
2022/05/19 11:55:17;;;;;;;3.93;3.63;;;37.30;58.90;;;;;;5047659;28;20445;-72
2022/05/19 11:57:53;;;;;;;5.37;3.97;;;38.40;56.60;;;;;;5029068;28;20809;-71
2022/05/19 12:00:52;;;;;;;3.60;3.30;;;36.70;58.60;;;;;;5048365;28;20413;-71
2022/05/19 12:03:44;;;;;;;5.00;3.90;;;35.60;60.30;;;;;;5016045;28;20499;-73
2022/05/19 12:06:10;;;;;;;5.00;3.67;;;37.10;58.70;;;;;;5049016;28;20582;-72
2022/05/19 12:08:56;;;;;;;4.63;3.33;;;37.40;58.70;;;;;;5048885;28;20985;-72
2022/05/19 12:11:40;;;;;;;5.03;3.50;;;38.10;57.10;;;;;;5047922;28;20542;-72
2022/05/19 12:14:16;;;;;;;4.87;3.87;;;39.00;55.40;;;;;;5047885;28;20425;-72
2022/05/19 12:17:15;;;;;;;5.73;3.50;;;40.20;55.10;;;;;;5047446;28;20415;-75
2022/05/19 12:19:56;;;;;;;5.00;3.50;;;39.80;54.60;;;;;;5046333;28;20420;-71
2022/05/19 12:22:35;;;;;;;5.13;3.80;;;38.90;55.30;;;;;;5046319;28;20405;-73
2022/05/19 12:25:01;;;;;;;4.50;3.47;;;38.90;55.10;;;;;;5046349;28;20502;-71
2022/05/19 12:27:30;;;;;;;4.57;3.10;;;38.70;55.10;;;;;;5045972;28;20417;-73
2022/05/19 12:33:21;;;;;;;7.20;3.77;;;38.80;55.50;;;;;;5045297;28;20952;-73
2022/05/19 12:36:10;;;;;;;5.93;3.97;;;40.00;54.30;;;;;;5046159;28;20451;-71
2022/05/19 12:38:38;;;;;;;4.07;3.77;;;39.20;52.90;;;;;;5045373;28;20804;-71
2022/05/19 12:41:08;;;;;;;3.73;3.43;;;38.80;53.40;;;;;;5045968;28;20780;-73
2022/05/19 12:43:41;;;;;;;3.83;3.53;;;37.70;55.90;;;;;;5045093;28;20441;-72
2022/05/19 12:46:14;;;;;;;4.50;4.10;;;37.60;57.00;;;;;;5044862;28;20448;-72
2022/05/19 12:48:46;;;;;;;3.83;3.53;;;37.20;56.60;;;;;;5044950;28;20405;-74
2022/05/19 12:51:43;;;;;;;4.33;3.93;;;37.50;55.50;;;;;;5045180;28;20409;-72
2022/05/19 12:54:10;;;;;;;3.60;3.30;;;37.00;57.40;;;;;;5043534;28;20503;-72
2022/05/19 12:56:41;;;;;;;4.10;3.70;;;36.70;56.10;;;;;;5045000;28;20432;-71
2022/05/19 12:59:11;;;;;;;5.87;4.00;;;37.20;57.00;;;;;;5045002;28;20464;-72
2022/05/19 13:01:47;;;;;;;3.63;3.27;;;38.70;54.60;;;;;;5044774;28;20439;-73
2022/05/19 13:04:32;;;;;;;4.13;3.70;;;40.10;50.70;;;;;;5044337;28;20424;-73
2022/05/19 13:07:28;;;;;;;5.77;3.63;;;40.30;50.30;;;;;;5045343;28;20408;-71
2022/05/19 13:09:59;;;;;;;6.73;3.00;;;39.00;51.00;;;;;;5044833;28;20460;-72
2022/05/19 13:12:31;;;;;;;3.80;3.47;;;38.80;51.30;;;;;;5044972;28;20432;-71
2022/05/19 13:15:00;;;;;;;7.17;3.70;;;37.70;53.30;;;;;;5044683;28;20512;-70
2022/05/19 13:17:43;;;;;;;4.60;4.00;;;37.30;54.30;;;;;;5044560;28;20444;-71
2022/05/19 13:20:28;;;;;;;6.50;4.33;;;37.50;53.50;;;;;;5044875;28;20669;-74
2022/05/19 13:22:59;;;;;;;4.50;3.80;;;38.20;52.90;;;;;;5044761;28;20808;-73
2022/05/19 13:25:26;;;;;;;5.27;4.00;;;37.40;54.10;;;;;;5044825;28;20456;-72
2022/05/19 13:30:56;;;;;;;3.87;3.47;;;37.10;55.10;;;;;;5045016;28;20634;-72
2022/05/19 13:33:29;;;;;;;5.87;3.63;;;37.00;56.50;;;;;;5044061;28;20441;-71
2022/05/19 13:36:08;;;;;;;4.73;3.50;;;37.30;55.80;;;;;;5044836;28;20413;-73